map of DAB home
DAB - Airport
Location
City:  Daytona Beach, Florida, United States
Name:Daytona Beach International Airport
ICAO:KDAB
IATA:DAB
FAA LID:DAB

Details
Type:Airport (Part 139 Class I)
Use:Public/Civil
Latitude:2910'48"N (29.179917)
Longitude:8103'29"W (-81.058055)
Datum:WGS 1984
Elevation:34 ft (10 m)
Variation:6.61W (WMM2015 magnetic declination)
-0.09 annual change
Runways:3
Longest:10500 × 150 ft (3200 × 45.5 m), paved

Time
Time Zone:UTC-5 (DST-4)
Local Time:

Weather
METAR:KDAB 291353Z VRB06KT 10SM FEW090 22/16 A3006 RMK AO2 SLP178 T02220156
TAF:KDAB 291120Z 2912/3012 VRB03KT P6SM SKC
FM291800 09008KT P6SM FEW045
FM300000 VRB02KT P6SM FEW045

Related Locations
Nearby:
Farthest:USL: 11536 mi / 18565 km
Useless Loop, WA, AU

Find:

   beyond  
but within

Other Information
Maps:
Delays:
NOTAMs:
Links:
Sources:

  
flag of United States
flag of Florida
  

Airport Diagram

Airport diagram for DAB

Airport diagram PDF

Sectional Chart

Flight Planning
at skyvector.com

Satellite Image

Google Maps Satellite view

 

Copyright © 2004-2017 Karl L. Swartz. All rights reserved.
The Great Circle Mapper name and logo are trademarks of the Great Circle Mapper.
All other trademarks mentioned herein belong to their respective owners.
Please see credits for attibutions and further copyright information.

  Follow gcmap on Facebook Follow gcmap on Twitter Follow gcmap on Google+ GCmap on LinkedIn

hCard Microformat

Geo Microformat